Time;durP1;ratioP1;P1;durP2;ratioP2;P2;SDS_P1;SDS_P2;PMS_P1;PMS_P2;Temp;Humidity;BMP_temperature;BMP_pressure;BME280_temperature;BME280_humidity;BME280_pressure;Samples;Min_cycle;Max_cycle;Signal;HPM_P1;HPM_P2
2023/05/10 00:00:27;;;;;;;8.35;7.55;;;13.20;99.90;;;;;;5105895;27;20050;-61
2023/05/10 00:02:53;;;;;;;8.73;7.57;;;13.20;99.90;;;;;;5104000;28;20482;-61
2023/05/10 00:05:18;;;;;;;9.55;8.55;;;13.20;99.90;;;;;;5116903;27;20474;-61
2023/05/10 00:07:44;;;;;;;9.15;7.82;;;13.20;99.90;;;;;;5117446;27;20043;-61
2023/05/10 00:10:11;;;;;;;9.70;8.70;;;13.20;99.90;;;;;;5125278;27;20576;-61
2023/05/10 00:12:37;;;;;;;9.82;8.82;;;13.20;99.90;;;;;;5118945;28;20490;-61
2023/05/10 00:15:04;;;;;;;10.63;8.95;;;13.10;99.90;;;;;;5117361;28;20038;-61
2023/05/10 00:17:29;;;;;;;9.90;8.88;;;13.10;99.90;;;;;;5101810;28;20035;-61
2023/05/10 00:19:55;;;;;;;10.30;8.55;;;13.10;99.90;;;;;;5103267;28;20058;-61
2023/05/10 00:22:21;;;;;;;11.77;10.55;;;13.10;99.90;;;;;;5123602;27;20040;-62
2023/05/10 00:24:53;;;;;;;10.60;9.45;;;13.10;99.90;;;;;;5128491;27;20049;-61
2023/05/10 00:27:19;;;;;;;11.65;10.45;;;13.10;99.90;;;;;;5108165;27;20047;-61
2023/05/10 00:29:48;;;;;;;10.85;9.73;;;13.10;99.90;;;;;;5126949;27;20048;-61
2023/05/10 00:32:14;;;;;;;9.70;8.10;;;13.00;99.90;;;;;;5120728;27;20111;-62
2023/05/10 00:34:42;;;;;;;9.68;8.65;;;13.00;99.90;;;;;;5119954;27;20599;-62
2023/05/10 00:37:08;;;;;;;7.75;6.47;;;13.00;99.90;;;;;;5128898;27;20042;-61
2023/05/10 00:39:34;;;;;;;6.10;5.50;;;13.00;99.90;;;;;;5119640;27;20516;-62
2023/05/10 00:42:00;;;;;;;6.15;5.55;;;13.00;99.90;;;;;;5121504;27;20035;-61
2023/05/10 00:44:26;;;;;;;5.80;5.30;;;13.00;99.90;;;;;;5109103;27;20510;-63
2023/05/10 00:46:52;;;;;;;5.63;5.13;;;12.90;99.90;;;;;;5124928;27;20058;-63
2023/05/10 00:49:19;;;;;;;5.82;5.22;;;12.90;99.90;;;;;;5112938;27;20047;-63
2023/05/10 00:51:45;;;;;;;5.32;4.82;;;12.90;99.90;;;;;;5127518;27;20035;-60
2023/05/10 00:54:13;;;;;;;5.60;5.10;;;12.90;99.90;;;;;;5127002;27;20532;-60
2023/05/10 00:56:40;;;;;;;5.50;5.00;;;12.80;99.90;;;;;;5121388;27;20028;-63
2023/05/10 00:59:07;;;;;;;5.93;5.43;;;12.80;99.90;;;;;;5123896;27;20035;-63
2023/05/10 01:01:33;;;;;;;6.68;6.07;;;12.90;99.90;;;;;;5108315;27;20050;-62
2023/05/10 01:03:59;;;;;;;5.97;5.45;;;12.70;99.90;;;;;;5128063;27;20035;-62
2023/05/10 01:06:25;;;;;;;6.47;5.88;;;12.80;99.90;;;;;;5109860;27;20048;-62
2023/05/10 01:08:51;;;;;;;7.03;6.32;;;12.80;99.90;;;;;;5123102;27;20038;-62
2023/05/10 01:11:17;;;;;;;7.75;6.95;;;12.80;99.90;;;;;;5114949;27;20504;-62
2023/05/10 01:13:47;;;;;;;8.68;7.82;;;12.70;99.90;;;;;;5123239;27;20050;-63
2023/05/10 01:16:13;;;;;;;10.50;9.40;;;12.70;99.90;;;;;;5129243;27;20045;-62
2023/05/10 01:18:41;;;;;;;9.95;8.95;;;12.70;99.90;;;;;;5125160;27;20062;-64
2023/05/10 01:21:41;;;;;;;11.40;9.77;;;12.70;99.90;;;;;;5124081;27;20383;-62
2023/05/10 01:24:19;;;;;;;12.30;10.55;;;12.70;99.90;;;;;;5124311;27;20047;-62
2023/05/10 01:26:58;;;;;;;13.13;11.27;;;12.60;99.90;;;;;;5104221;27;20266;-63
2023/05/10 01:29:39;;;;;;;13.50;11.05;;;12.70;99.90;;;;;;5118217;27;20039;-62
2023/05/10 01:32:10;;;;;;;15.10;13.50;;;12.70;99.90;;;;;;5115652;27;20044;-65
2023/05/10 01:34:47;;;;;;;18.63;14.90;;;12.70;99.90;;;;;;5121806;27;20379;-62
2023/05/10 01:37:22;;;;;;;22.33;17.90;;;12.70;99.90;;;;;;5117528;27;20474;-62
2023/05/10 01:40:03;;;;;;;21.63;17.63;;;12.70;99.90;;;;;;5114008;27;20056;-62
2023/05/10 01:42:36;;;;;;;23.17;16.63;;;12.70;99.90;;;;;;5111708;27;20918;-62
2023/05/10 01:45:11;;;;;;;21.65;17.17;;;12.60;99.90;;;;;;5130638;27;20577;-62
2023/05/10 01:47:45;;;;;;;20.45;16.42;;;12.60;99.90;;;;;;5125967;27;20027;-63
2023/05/10 01:50:18;;;;;;;24.45;16.55;;;12.60;99.90;;;;;;5123327;27;20047;-62
2023/05/10 01:52:49;;;;;;;21.33;16.35;;;12.60;99.90;;;;;;5118389;27;20520;-62
2023/05/10 01:55:18;;;;;;;26.23;17.75;;;12.60;99.90;;;;;;5125920;27;20072;-62
2023/05/10 01:57:46;;;;;;;26.40;18.60;;;12.50;99.90;;;;;;5126477;27;20035;-62
2023/05/10 02:00:13;;;;;;;26.65;19.52;;;12.50;99.90;;;;;;5123078;27;20035;-62
2023/05/10 02:02:46;;;;;;;29.52;20.08;;;12.50;99.90;;;;;;5125665;27;20070;-62
2023/05/10 02:05:14;;;;;;;30.70;19.90;;;12.50;99.90;;;;;;5119340;27;20420;-64
2023/05/10 02:07:41;;;;;;;27.60;20.30;;;12.50;99.90;;;;;;5124869;27;20115;-62
2023/05/10 02:10:09;;;;;;;31.40;21.42;;;12.50;99.90;;;;;;5122616;27;20568;-62
2023/05/10 02:12:37;;;;;;;29.73;20.13;;;12.50;99.90;;;;;;5125346;27;20565;-62
2023/05/10 02:15:07;;;;;;;34.10;22.40;;;12.50;99.90;;;;;;5116228;27;20035;-62
2023/05/10 02:17:34;;;;;;;37.40;22.55;;;12.50;99.90;;;;;;5124225;27;20110;-62
2023/05/10 02:20:01;;;;;;;33.65;22.33;;;12.50;99.90;;;;;;5125711;27;20043;-63
2023/05/10 02:22:28;;;;;;;32.88;23.25;;;12.50;99.90;;;;;;5117028;27;20659;-62
2023/05/10 02:24:59;;;;;;;34.08;23.15;;;12.60;99.90;;;;;;5123789;27;20409;-63
2023/05/10 02:27:27;;;;;;;30.00;20.58;;;12.50;99.90;;;;;;5126840;27;20047;-62
2023/05/10 02:29:54;;;;;;;31.50;21.33;;;12.60;99.90;;;;;;5122807;27;20670;-63
2023/05/10 02:32:22;;;;;;;31.90;22.60;;;12.60;99.90;;;;;;5122841;27;20062;-62
2023/05/10 02:34:51;;;;;;;25.50;20.42;;;12.60;99.90;;;;;;5118760;27;20035;-61
2023/05/10 02:37:20;;;;;;;26.92;20.55;;;12.60;99.90;;;;;;5124642;27;20051;-64
2023/05/10 02:39:54;;;;;;;27.95;21.58;;;12.60;99.90;;;;;;5123221;27;20065;-62
2023/05/10 02:42:27;;;;;;;30.75;23.35;;;12.70;99.90;;;;;;5124382;27;20039;-61
2023/05/10 02:45:02;;;;;;;37.27;25.10;;;12.70;99.90;;;;;;5122771;27;20047;-62
2023/05/10 02:47:29;;;;;;;30.52;22.27;;;12.60;99.90;;;;;;5121482;27;20506;-62
2023/05/10 02:49:55;;;;;;;35.35;22.98;;;12.70;99.90;;;;;;5124312;27;20126;-62
2023/05/10 02:52:29;;;;;;;36.72;22.42;;;12.60;99.90;;;;;;5126100;27;20071;-64
2023/05/10 02:54:56;;;;;;;;;;;12.60;99.90;;;;;;5103121;27;20131;-62
2023/05/10 02:57:28;;;;;;;33.47;19.50;;;12.60;99.90;;;;;;5121313;27;19915;-62
2023/05/10 02:59:58;;;;;;;28.08;17.92;;;12.60;99.90;;;;;;5107108;27;20114;-62
2023/05/10 03:02:24;;;;;;;22.35;15.90;;;12.60;99.90;;;;;;5138224;27;20099;-61
2023/05/10 03:04:49;;;;;;;17.55;11.80;;;12.60;99.90;;;;;;5091759;27;20034;-64
2023/05/10 03:07:16;;;;;;;12.45;10.45;;;12.50;99.90;;;;;;5121093;27;20655;-64
2023/05/10 03:09:42;;;;;;;10.13;7.70;;;12.50;99.90;;;;;;5127975;27;20088;-62
2023/05/10 03:12:31;;;;;;;7.93;6.85;;;12.50;99.90;;;;;;5126894;27;20646;-62
2023/05/10 03:15:42;;;;;;;7.43;6.10;;;12.60;99.90;;;;;;5125692;27;20131;-62
2023/05/10 03:18:30;;;;;;;4.55;4.07;;;12.60;99.90;;;;;;5104959;27;20116;-62
2023/05/10 03:21:05;;;;;;;4.82;4.13;;;12.50;99.90;;;;;;5118119;27;20493;-62
2023/05/10 03:23:36;;;;;;;3.65;2.85;;;12.50;99.90;;;;;;5124027;27;21345;-62
2023/05/10 03:26:04;;;;;;;4.03;3.20;;;12.40;99.90;;;;;;5104467;27;20074;-64
2023/05/10 03:28:31;;;;;;;3.22;2.83;;;12.50;99.90;;;;;;5108675;27;20039;-62
2023/05/10 03:30:58;;;;;;;4.32;2.80;;;12.50;99.90;;;;;;5122204;27;20548;-62
2023/05/10 03:33:24;;;;;;;3.72;2.60;;;12.50;99.90;;;;;;5118071;27;20518;-63
2023/05/10 03:35:50;;;;;;;2.92;2.63;;;12.50;99.90;;;;;;5118310;27;20046;-62
2023/05/10 03:38:16;;;;;;;2.85;2.55;;;12.40;99.90;;;;;;5122871;27;20046;-61
2023/05/10 03:40:41;;;;;;;6.57;2.97;;;12.40;99.90;;;;;;5123816;27;20038;-62
2023/05/10 03:43:07;;;;;;;3.85;2.78;;;12.50;99.90;;;;;;5118426;27;20067;-63
2023/05/10 03:45:33;;;;;;;5.10;3.90;;;12.50;99.90;;;;;;5118617;27;20075;-63
2023/05/10 03:47:59;;;;;;;3.95;3.50;;;12.50;99.90;;;;;;5097235;27;20073;-62
2023/05/10 03:50:24;;;;;;;3.78;3.30;;;12.40;99.90;;;;;;5119047;27;20039;-62
2023/05/10 03:52:50;;;;;;;6.22;3.67;;;12.40;99.90;;;;;;5138800;27;20039;-65
2023/05/10 03:55:16;;;;;;;5.20;3.97;;;12.40;99.90;;;;;;5126042;27;20423;-62
2023/05/10 03:57:42;;;;;;;5.28;4.35;;;12.40;99.90;;;;;;5111355;27;20047;-62
2023/05/10 04:00:09;;;;;;;6.05;5.45;;;12.30;99.90;;;;;;5119425;27;20088;-62
2023/05/10 04:02:35;;;;;;;7.68;5.82;;;12.30;99.90;;;;;;5093153;28;20047;-62
2023/05/10 04:05:01;;;;;;;7.03;6.32;;;12.30;99.90;;;;;;5118505;27;20040;-62
2023/05/10 04:07:27;;;;;;;8.20;6.75;;;12.30;99.90;;;;;;5126822;27;20167;-62
2023/05/10 04:09:52;;;;;;;10.25;7.63;;;12.30;99.90;;;;;;5120664;28;20478;-62
2023/05/10 04:12:18;;;;;;;9.27;7.60;;;12.30;99.90;;;;;;5122384;27;20092;-63
2023/05/10 04:14:44;;;;;;;9.00;7.95;;;12.30;99.90;;;;;;5122219;28;20130;-64
2023/05/10 04:17:10;;;;;;;8.85;7.95;;;12.30;99.90;;;;;;5124993;27;20039;-62
2023/05/10 04:19:36;;;;;;;10.65;8.75;;;12.30;99.90;;;;;;5114450;28;20063;-62
2023/05/10 04:22:02;;;;;;;10.18;8.60;;;12.30;99.90;;;;;;5118876;27;20047;-62
2023/05/10 04:24:28;;;;;;;10.40;8.85;;;12.30;99.90;;;;;;5127828;27;20126;-62
2023/05/10 04:26:54;;;;;;;11.90;9.00;;;12.20;99.90;;;;;;5107972;28;20177;-62
2023/05/10 04:29:20;;;;;;;11.88;8.43;;;12.20;99.90;;;;;;5114327;27;20072;-62
2023/05/10 04:31:46;;;;;;;9.40;8.50;;;12.20;99.90;;;;;;5120591;27;20035;-63
2023/05/10 04:34:12;;;;;;;11.88;9.02;;;12.20;99.90;;;;;;5106997;27;20031;-62
2023/05/10 04:36:38;;;;;;;9.93;8.88;;;12.20;99.90;;;;;;5123244;28;20128;-61
2023/05/10 04:39:06;;;;;;;9.88;8.65;;;12.20;99.90;;;;;;5123658;27;20043;-62
2023/05/10 04:41:32;;;;;;;9.32;8.18;;;12.20;99.90;;;;;;5125814;28;20050;-62
2023/05/10 04:43:58;;;;;;;8.48;7.05;;;12.20;99.90;;;;;;5118464;27;20039;-62
2023/05/10 04:46:24;;;;;;;7.38;6.30;;;12.20;99.90;;;;;;5124521;27;20580;-63
2023/05/10 04:48:49;;;;;;;7.13;5.72;;;12.20;99.90;;;;;;5115962;27;20036;-63
2023/05/10 04:51:15;;;;;;;3.95;3.55;;;12.20;99.90;;;;;;5121571;27;20058;-63
2023/05/10 04:53:41;;;;;;;3.20;2.67;;;12.20;99.90;;;;;;5119731;27;20032;-62
2023/05/10 04:56:07;;;;;;;2.58;2.28;;;12.20;99.90;;;;;;5116868;28;20109;-62
2023/05/10 04:58:33;;;;;;;3.15;2.35;;;12.20;99.90;;;;;;5114701;28;20111;-61
2023/05/10 05:01:06;;;;;;;2.58;2.17;;;12.20;99.90;;;;;;5107575;28;20038;-62
2023/05/10 05:03:32;;;;;;;2.75;2.35;;;12.20;99.90;;;;;;5118878;27;20038;-61
2023/05/10 05:05:58;;;;;;;2.70;2.20;;;12.20;99.90;;;;;;5123467;28;20603;-61
2023/05/10 05:08:24;;;;;;;3.50;2.80;;;12.20;99.90;;;;;;5118968;27;20038;-62
2023/05/10 05:10:52;;;;;;;2.60;2.20;;;12.20;99.90;;;;;;5103806;27;20051;-64
2023/05/10 05:13:18;;;;;;;3.13;2.58;;;12.20;99.90;;;;;;5125639;27;20066;-61
2023/05/10 05:15:44;;;;;;;3.65;3.10;;;12.20;99.90;;;;;;5143013;27;20038;-64
2023/05/10 05:18:10;;;;;;;3.97;3.25;;;12.20;99.90;;;;;;5117890;27;21344;-61
2023/05/10 05:20:35;;;;;;;4.53;3.45;;;12.20;99.90;;;;;;5104535;27;20034;-62
2023/05/10 05:23:01;;;;;;;5.38;4.00;;;12.20;99.90;;;;;;5118500;27;20491;-63
2023/05/10 05:25:27;;;;;;;5.13;4.57;;;12.20;99.90;;;;;;5115583;27;20092;-62
2023/05/10 05:27:53;;;;;;;4.93;4.43;;;12.20;99.90;;;;;;5124763;27;20065;-62
2023/05/10 05:30:22;;;;;;;6.00;5.40;;;12.20;99.90;;;;;;5106067;27;20153;-65
2023/05/10 05:32:56;;;;;;;6.20;5.60;;;12.20;99.90;;;;;;5127919;27;20032;-63
2023/05/10 05:35:22;;;;;;;6.60;5.78;;;12.10;99.90;;;;;;5100804;27;20057;-63
2023/05/10 05:37:57;;;;;;;8.90;6.90;;;12.10;99.90;;;;;;5125183;27;20035;-64
2023/05/10 05:40:28;;;;;;;8.57;7.57;;;12.10;99.90;;;;;;5108171;27;20043;-61
2023/05/10 05:43:03;;;;;;;10.02;8.02;;;12.20;99.90;;;;;;5118719;27;20043;-63
2023/05/10 05:45:32;;;;;;;9.02;7.72;;;12.10;99.90;;;;;;5114290;27;20051;-62
2023/05/10 05:47:58;;;;;;;11.55;7.70;;;12.20;99.90;;;;;;5121943;27;20167;-62
2023/05/10 05:50:23;;;;;;;9.88;7.70;;;12.20;99.90;;;;;;5127624;27;20600;-63
2023/05/10 05:52:52;;;;;;;8.93;7.70;;;12.20;99.90;;;;;;5125319;27;20039;-63
2023/05/10 05:55:18;;;;;;;10.68;8.13;;;12.20;99.90;;;;;;5121056;27;20051;-62
2023/05/10 05:57:43;;;;;;;8.75;7.57;;;12.20;99.90;;;;;;5125320;27;20433;-61
2023/05/10 06:00:10;;;;;;;11.02;8.05;;;12.20;99.90;;;;;;5126765;27;20073;-65
2023/05/10 06:02:36;;;;;;;10.00;7.85;;;12.20;99.90;;;;;;5126498;27;20508;-62
2023/05/10 06:05:02;;;;;;;10.70;8.77;;;12.20;99.90;;;;;;5120634;27;20070;-62
2023/05/10 06:07:28;;;;;;;9.18;7.78;;;12.20;99.90;;;;;;5129888;27;20139;-62
2023/05/10 06:09:53;;;;;;;10.75;7.32;;;12.20;99.90;;;;;;5107727;27;20034;-63
2023/05/10 06:12:19;;;;;;;8.15;6.60;;;12.30;99.90;;;;;;5119962;27;20043;-65
2023/05/10 06:14:45;;;;;;;8.20;6.20;;;12.20;99.90;;;;;;5128199;27;20050;-62
2023/05/10 06:17:11;;;;;;;9.05;6.47;;;12.20;99.90;;;;;;5129826;27;20027;-64
2023/05/10 06:19:37;;;;;;;8.50;5.60;;;12.20;99.90;;;;;;5122607;27;20047;-62
2023/05/10 06:22:03;;;;;;;8.93;5.55;;;12.20;99.90;;;;;;5100614;27;20024;-63
2023/05/10 06:24:28;;;;;;;10.13;6.03;;;12.20;99.90;;;;;;5119515;27;20040;-64
2023/05/10 06:26:54;;;;;;;6.80;4.60;;;12.30;99.90;;;;;;5122357;27;20393;-62
2023/05/10 06:29:20;;;;;;;7.65;4.93;;;12.30;99.90;;;;;;5122043;27;20046;-62
2023/05/10 06:31:46;;;;;;;6.55;4.45;;;12.30;99.90;;;;;;5128876;27;20585;-62
2023/05/10 06:34:12;;;;;;;6.95;4.57;;;12.30;99.90;;;;;;5092027;27;20099;-61
2023/05/10 06:36:46;;;;;;;5.95;4.43;;;12.40;99.90;;;;;;5121844;27;20035;-61
2023/05/10 06:39:12;;;;;;;4.78;3.38;;;12.40;99.90;;;;;;5123649;27;20039;-62
2023/05/10 06:41:38;;;;;;;5.53;3.97;;;12.40;99.90;;;;;;5101538;28;20352;-62
2023/05/10 06:44:04;;;;;;;4.97;3.33;;;12.40;99.90;;;;;;5120484;27;20046;-63
2023/05/10 06:46:30;;;;;;;4.32;3.33;;;12.50;99.90;;;;;;5110166;27;20565;-62
2023/05/10 06:48:59;;;;;;;4.10;2.78;;;12.50;99.90;;;;;;5122847;27;20129;-61
2023/05/10 06:51:25;;;;;;;4.60;3.33;;;12.40;99.90;;;;;;5105798;27;20035;-62
2023/05/10 06:53:51;;;;;;;5.10;3.08;;;12.50;99.90;;;;;;5118207;27;20043;-61
2023/05/10 06:56:21;;;;;;;6.38;3.20;;;12.50;99.90;;;;;;5125904;27;20034;-62
2023/05/10 06:58:50;;;;;;;3.78;2.65;;;12.50;99.90;;;;;;5125142;27;20042;-60
2023/05/10 07:01:15;;;;;;;5.00;3.08;;;12.50;99.90;;;;;;5110236;27;20039;-63
2023/05/10 07:03:41;;;;;;;3.45;2.78;;;12.50;99.90;;;;;;5127195;27;20521;-59
2023/05/10 07:06:07;;;;;;;4.43;2.90;;;12.50;99.90;;;;;;5122450;27;20034;-60
2023/05/10 07:08:36;;;;;;;5.72;3.30;;;12.50;99.90;;;;;;5122575;27;20513;-61
2023/05/10 07:11:11;;;;;;;3.80;2.72;;;12.60;99.90;;;;;;5122462;27;20028;-61
2023/05/10 07:13:38;;;;;;;4.72;3.30;;;12.60;99.90;;;;;;5121324;27;20092;-61
2023/05/10 07:16:06;;;;;;;4.50;3.30;;;12.60;99.90;;;;;;5123948;27;20043;-60
2023/05/10 07:18:32;;;;;;;5.38;3.58;;;12.60;99.90;;;;;;5102549;27;22173;-61
2023/05/10 07:20:57;;;;;;;5.47;3.40;;;12.60;99.90;;;;;;5125415;27;20031;-61
2023/05/10 07:23:23;;;;;;;4.13;3.38;;;12.60;99.90;;;;;;5125126;27;20051;-60
2023/05/10 07:25:51;;;;;;;4.10;3.08;;;12.60;99.90;;;;;;5130474;27;20039;-61
2023/05/10 07:28:17;;;;;;;5.97;3.28;;;12.60;99.90;;;;;;5129908;27;20035;-61
2023/05/10 07:30:43;;;;;;;3.92;3.10;;;12.60;99.90;;;;;;5118417;27;20390;-61
2023/05/10 07:33:10;;;;;;;4.10;3.25;;;12.70;99.90;;;;;;5125968;27;20649;-61
2023/05/10 07:35:36;;;;;;;4.88;3.53;;;12.70;99.90;;;;;;5127756;27;20724;-61
2023/05/10 07:38:02;;;;;;;6.50;4.00;;;12.70;99.90;;;;;;5125379;27;20158;-61
2023/05/10 07:40:29;;;;;;;4.90;3.92;;;12.70;99.90;;;;;;5123514;27;20607;-61
2023/05/10 07:42:55;;;;;;;5.30;4.20;;;12.80;99.90;;;;;;5122511;27;20070;-61
2023/05/10 07:45:20;;;;;;;4.03;3.42;;;12.80;99.90;;;;;;5117121;27;20051;-61
2023/05/10 07:47:46;;;;;;;5.63;3.38;;;12.80;99.90;;;;;;5098244;27;20042;-61
2023/05/10 07:50:12;;;;;;;4.85;3.05;;;12.70;99.90;;;;;;5106195;27;20039;-61
2023/05/10 07:52:38;;;;;;;4.00;2.72;;;12.80;99.90;;;;;;5088548;27;20053;-60
2023/05/10 07:55:07;;;;;;;4.60;3.10;;;12.80;99.90;;;;;;5123026;27;20035;-61
2023/05/10 07:57:36;;;;;;;5.78;2.92;;;12.80;99.90;;;;;;5123200;27;20074;-61
2023/05/10 08:00:02;;;;;;;6.32;3.35;;;12.80;99.90;;;;;;5122152;27;20494;-61
2023/05/10 08:02:28;;;;;;;7.03;3.33;;;12.90;99.90;;;;;;5125168;27;20104;-61
2023/05/10 08:04:53;;;;;;;10.50;3.88;;;12.80;99.90;;;;;;5122155;27;20611;-60
2023/05/10 08:07:19;;;;;;;6.30;3.83;;;12.90;99.90;;;;;;5119763;28;20110;-60
2023/05/10 08:09:45;;;;;;;5.70;3.78;;;12.90;99.90;;;;;;5120454;27;20035;-59
2023/05/10 08:12:11;;;;;;;7.18;4.32;;;12.90;99.90;;;;;;5117060;27;20488;-59
2023/05/10 08:14:37;;;;;;;8.68;4.60;;;13.00;99.90;;;;;;5121688;28;20119;-60
2023/05/10 08:17:03;;;;;;;8.35;4.97;;;13.00;99.90;;;;;;5120856;28;20024;-61
2023/05/10 08:19:29;;;;;;;7.15;4.13;;;13.10;99.90;;;;;;5103131;28;20346;-59
2023/05/10 08:21:58;;;;;;;10.80;4.90;;;13.10;99.90;;;;;;5123735;28;20038;-60
2023/05/10 08:24:23;;;;;;;8.48;5.00;;;13.10;99.90;;;;;;5089459;28;20039;-61
2023/05/10 08:26:52;;;;;;;10.23;5.15;;;13.00;99.90;;;;;;5117865;28;20075;-61
2023/05/10 08:29:18;;;;;;;7.57;5.10;;;13.00;99.90;;;;;;5126231;27;20536;-61
2023/05/10 08:31:43;;;;;;;9.45;5.30;;;13.10;99.90;;;;;;5123064;28;20106;-61
2023/05/10 08:34:09;;;;;;;9.25;5.50;;;13.10;99.90;;;;;;5121348;27;20110;-61
2023/05/10 08:36:35;;;;;;;9.35;6.57;;;13.20;99.90;;;;;;5124665;28;20050;-60
2023/05/10 08:39:02;;;;;;;7.80;5.38;;;13.20;99.90;;;;;;5122883;28;20054;-61
2023/05/10 08:41:28;;;;;;;9.65;6.55;;;13.20;99.90;;;;;;5121399;28;20067;-60
2023/05/10 08:43:57;;;;;;;11.23;6.65;;;13.20;99.90;;;;;;5119292;28;20050;-61
2023/05/10 08:46:23;;;;;;;10.05;6.50;;;13.20;99.90;;;;;;5106403;27;20039;-61
2023/05/10 08:48:51;;;;;;;9.70;5.97;;;13.20;99.90;;;;;;5124992;27;20040;-61
2023/05/10 08:51:20;;;;;;;9.05;5.65;;;13.30;99.90;;;;;;5125089;27;20042;-61
2023/05/10 08:53:47;;;;;;;11.35;6.38;;;13.40;99.90;;;;;;5125733;27;20039;-60
2023/05/10 08:56:13;;;;;;;11.00;6.57;;;13.50;99.90;;;;;;5121514;27;20039;-60
2023/05/10 08:58:39;;;;;;;7.18;5.15;;;13.60;99.90;;;;;;5118432;27;20045;-60
2023/05/10 09:01:08;;;;;;;7.25;5.15;;;13.60;99.90;;;;;;5124189;27;20035;-59
2023/05/10 09:03:35;;;;;;;7.63;4.65;;;13.60;99.90;;;;;;5122963;27;20095;-60
2023/05/10 09:06:01;;;;;;;8.23;5.13;;;13.70;99.90;;;;;;5126290;27;20070;-60
2023/05/10 09:08:27;;;;;;;7.57;5.47;;;13.60;99.90;;;;;;5124601;27;20402;-61
2023/05/10 09:10:54;;;;;;;7.40;5.60;;;13.70;99.90;;;;;;5124154;27;20039;-60
2023/05/10 09:13:22;;;;;;;8.07;5.43;;;13.80;99.90;;;;;;5128027;27;20039;-57
2023/05/10 09:15:48;;;;;;;6.60;5.30;;;13.80;99.90;;;;;;5125081;27;20043;-60
2023/05/10 09:18:14;;;;;;;9.10;5.05;;;13.80;99.90;;;;;;5131547;27;20615;-59
2023/05/10 09:20:40;;;;;;;7.03;4.78;;;13.70;99.90;;;;;;5127542;27;20079;-61
2023/05/10 09:23:06;;;;;;;7.65;5.45;;;13.80;99.90;;;;;;5134150;27;20062;-59
2023/05/10 09:25:35;;;;;;;6.22;4.50;;;13.90;99.90;;;;;;5127399;27;20051;-58
2023/05/10 09:28:08;;;;;;;5.68;4.53;;;13.90;99.90;;;;;;5135045;27;20039;-59
2023/05/10 09:30:34;;;;;;;10.18;6.70;;;14.00;99.90;;;;;;5129798;27;20047;-60
2023/05/10 09:33:00;;;;;;;11.70;7.10;;;14.00;99.90;;;;;;5134240;27;20031;-60
2023/05/10 09:35:28;;;;;;;12.40;7.90;;;14.10;99.90;;;;;;5122208;27;20039;-60
2023/05/10 09:38:00;;;;;;;8.98;6.70;;;14.00;99.90;;;;;;5129622;27;20031;-61
2023/05/10 09:40:28;;;;;;;11.20;7.20;;;13.90;99.90;;;;;;5129570;27;20981;-60
2023/05/10 09:43:07;;;;;;;12.23;8.18;;;13.90;99.90;;;;;;5126598;27;20043;-58
2023/05/10 09:45:35;;;;;;;8.93;7.25;;;13.80;99.90;;;;;;5123450;27;20092;-60
2023/05/10 09:48:04;;;;;;;11.35;7.40;;;13.90;99.90;;;;;;5125187;27;20043;-60
2023/05/10 09:50:30;;;;;;;11.93;8.38;;;13.90;99.90;;;;;;5123344;27;20035;-60
2023/05/10 09:53:02;;;;;;;13.07;8.50;;;14.00;99.90;;;;;;5131879;27;20043;-60
2023/05/10 09:55:37;;;;;;;13.93;9.23;;;13.90;99.90;;;;;;5125001;27;20039;-59
2023/05/10 09:58:04;;;;;;;12.70;9.48;;;13.90;99.90;;;;;;5120209;27;20043;-59
2023/05/10 10:00:44;;;;;;;12.32;8.88;;;13.90;99.90;;;;;;5120420;27;20062;-61
2023/05/10 10:03:19;;;;;;;13.38;8.98;;;13.80;99.90;;;;;;5107769;27;20154;-61
2023/05/10 10:05:46;;;;;;;14.48;9.52;;;13.80;99.90;;;;;;5124871;27;20035;-58
2023/05/10 10:08:13;;;;;;;11.80;8.63;;;13.90;99.90;;;;;;5119734;27;20435;-60
2023/05/10 10:10:40;;;;;;;11.07;8.30;;;13.90;99.90;;;;;;5105684;27;20501;-61
2023/05/10 10:13:06;;;;;;;10.23;7.75;;;14.00;99.90;;;;;;5124117;27;20059;-61
2023/05/10 10:15:33;;;;;;;10.32;7.50;;;13.90;99.90;;;;;;5121237;27;20054;-60
2023/05/10 10:17:59;;;;;;;9.23;6.88;;;13.90;99.90;;;;;;5118746;27;20459;-60
2023/05/10 10:20:26;;;;;;;11.15;7.32;;;14.00;99.90;;;;;;5123234;27;20567;-60
2023/05/10 10:22:52;;;;;;;9.55;7.63;;;14.00;99.90;;;;;;5122272;27;20119;-61
2023/05/10 10:25:20;;;;;;;8.85;7.13;;;14.00;99.90;;;;;;5089989;27;20585;-61
2023/05/10 10:28:05;;;;;;;8.48;6.47;;;14.10;99.90;;;;;;5122621;27;20502;-61
2023/05/10 10:30:48;;;;;;;10.15;7.20;;;14.20;99.90;;;;;;5123322;27;20630;-61
2023/05/10 10:33:43;;;;;;;11.02;7.50;;;14.40;99.90;;;;;;5129641;27;20046;-61
2023/05/10 10:36:09;;;;;;;10.98;6.53;;;14.40;99.90;;;;;;5124323;27;20069;-60
2023/05/10 10:38:47;;;;;;;11.70;7.43;;;14.50;99.90;;;;;;5127305;27;20035;-61
2023/05/10 10:41:33;;;;;;;9.60;6.90;;;14.60;99.90;;;;;;5126948;27;20039;-60
2023/05/10 10:44:30;;;;;;;9.30;7.07;;;14.60;99.90;;;;;;5108631;27;20044;-59
2023/05/10 10:47:08;;;;;;;9.90;6.90;;;14.60;99.90;;;;;;5124057;27;20724;-60
2023/05/10 10:49:42;;;;;;;12.93;7.70;;;14.60;99.90;;;;;;5125692;27;20099;-61
2023/05/10 10:52:28;;;;;;;10.52;7.65;;;14.60;99.90;;;;;;5123738;27;20051;-61
2023/05/10 10:55:00;;;;;;;9.15;6.50;;;14.70;99.90;;;;;;5119500;27;20031;-61
2023/05/10 10:57:26;;;;;;;9.23;7.15;;;14.70;99.90;;;;;;5123343;27;20118;-61
2023/05/10 11:00:14;;;;;;;9.88;7.25;;;14.70;99.90;;;;;;5128479;27;20042;-60
2023/05/10 11:02:45;;;;;;;9.95;7.32;;;14.70;99.90;;;;;;5129175;27;20035;-59
2023/05/10 11:05:32;;;;;;;12.45;7.70;;;14.80;99.90;;;;;;5123589;27;20043;-59
2023/05/10 11:08:00;;;;;;;9.48;7.70;;;15.00;99.90;;;;;;5106709;28;20040;-57
2023/05/10 11:10:26;;;;;;;9.32;7.13;;;15.00;99.90;;;;;;5122280;27;20108;-58
2023/05/10 11:13:06;;;;;;;10.32;7.88;;;14.90;99.90;;;;;;5125787;27;20043;-59
2023/05/10 11:15:34;;;;;;;9.40;6.72;;;15.00;99.90;;;;;;5117951;27;20544;-60
2023/05/10 11:18:16;;;;;;;9.90;7.40;;;15.00;99.90;;;;;;5123675;27;20661;-58
2023/05/10 11:20:42;;;;;;;9.13;7.13;;;14.90;99.90;;;;;;5126267;27;20445;-58
2023/05/10 11:23:15;;;;;;;9.00;6.80;;;15.10;99.90;;;;;;5123988;27;20035;-60
2023/05/10 11:25:45;;;;;;;9.05;6.68;;;15.10;99.90;;;;;;5128632;27;20070;-61
2023/05/10 11:28:11;;;;;;;10.98;7.13;;;15.00;99.90;;;;;;5105238;27;20051;-60
2023/05/10 11:30:43;;;;;;;8.13;6.45;;;15.00;99.90;;;;;;5120286;27;20042;-61
2023/05/10 11:33:09;;;;;;;13.07;7.00;;;15.00;99.90;;;;;;5123527;27;20039;-58
2023/05/10 11:35:39;;;;;;;8.95;6.80;;;14.90;99.90;;;;;;5089977;27;20043;-62
2023/05/10 11:38:09;;;;;;;9.35;7.07;;;14.80;99.90;;;;;;5099306;27;20039;-61
2023/05/10 11:40:36;;;;;;;8.80;6.90;;;14.90;99.90;;;;;;5102320;27;20043;-60
2023/05/10 11:43:03;;;;;;;7.40;5.72;;;14.70;99.90;;;;;;5101067;27;20098;-61
2023/05/10 11:45:31;;;;;;;8.50;7.00;;;14.70;99.90;;;;;;5119819;27;20398;-60
2023/05/10 11:47:57;;;;;;;8.75;6.72;;;14.70;99.90;;;;;;5119082;27;20038;-61
2023/05/10 11:50:23;;;;;;;7.70;6.22;;;14.70;99.90;;;;;;5102497;27;20051;-61
2023/05/10 11:52:56;;;;;;;7.97;5.97;;;14.80;99.90;;;;;;5122532;27;20065;-59
2023/05/10 11:55:23;;;;;;;7.53;5.87;;;14.80;99.90;;;;;;5099714;27;20035;-59
2023/05/10 11:57:54;;;;;;;8.63;6.07;;;14.80;99.90;;;;;;5103828;27;20537;-61
2023/05/10 12:00:20;;;;;;;8.63;6.18;;;14.90;99.90;;;;;;5118763;27;20038;-61
2023/05/10 12:02:47;;;;;;;10.18;7.30;;;14.90;99.90;;;;;;5114544;27;20055;-61
2023/05/10 12:05:13;;;;;;;11.98;8.18;;;14.90;99.90;;;;;;5099893;28;20100;-61
2023/05/10 12:07:39;;;;;;;8.60;7.45;;;14.90;99.90;;;;;;5117318;27;20046;-62
2023/05/10 12:10:19;;;;;;;10.55;7.75;;;14.80;99.90;;;;;;5122395;27;20039;-60
2023/05/10 12:12:47;;;;;;;8.82;7.07;;;14.80;99.90;;;;;;5123852;27;20120;-60
2023/05/10 12:15:21;;;;;;;10.40;7.47;;;14.80;99.90;;;;;;5108672;28;20134;-59
2023/05/10 12:17:47;;;;;;;8.57;6.82;;;14.70;99.90;;;;;;5123716;27;20024;-60
2023/05/10 12:20:24;;;;;;;10.02;7.85;;;14.90;99.90;;;;;;5124711;27;20066;-61
2023/05/10 12:22:51;;;;;;;10.00;7.28;;;15.00;99.90;;;;;;5107400;27;20534;-60
2023/05/10 12:25:18;;;;;;;8.45;6.93;;;15.00;99.90;;;;;;5109456;27;20590;-59
2023/05/10 12:27:57;;;;;;;7.35;6.15;;;15.10;99.90;;;;;;5128367;27;20497;-59
2023/05/10 12:30:25;;;;;;;8.55;6.43;;;15.20;99.90;;;;;;5128233;27;20068;-60
2023/05/10 12:32:51;;;;;;;8.32;6.75;;;15.30;99.90;;;;;;5131886;27;20045;-59
2023/05/10 12:35:21;;;;;;;8.65;7.38;;;15.40;99.90;;;;;;5125853;27;20046;-60
2023/05/10 12:37:47;;;;;;;7.93;6.43;;;15.40;99.90;;;;;;5127977;27;20081;-59
2023/05/10 12:40:13;;;;;;;7.38;6.28;;;15.60;99.90;;;;;;5130032;27;20035;-61
2023/05/10 12:42:40;;;;;;;13.63;7.22;;;15.70;99.90;;;;;;5128224;27;20517;-60
2023/05/10 12:45:06;;;;;;;11.15;7.45;;;15.60;99.90;;;;;;5131858;27;20042;-60
2023/05/10 12:47:33;;;;;;;9.25;7.85;;;15.80;99.90;;;;;;5131854;27;20039;-61
2023/05/10 12:50:00;;;;;;;10.85;7.43;;;15.90;99.90;;;;;;5128474;27;20326;-60